sensor_id;sensor_type;location;lat;lon;timestamp;pressure;altitude;pressure_sealevel;temperature;humidity
57412;BME280;43247;52.828;-8.980;2023-07-28T00:00:29;100317.97;;;16.97;89.54
57412;BME280;43247;52.828;-8.980;2023-07-28T00:01:30;100319.05;;;16.97;89.58
57412;BME280;43247;52.828;-8.980;2023-07-28T00:02:30;100316.21;;;16.96;89.63
57412;BME280;43247;52.828;-8.980;2023-07-28T00:03:30;100310.18;;;16.96;89.60
57412;BME280;43247;52.828;-8.980;2023-07-28T00:04:31;100307.67;;;16.95;89.63
57412;BME280;43247;52.828;-8.980;2023-07-28T00:05:31;100311.56;;;16.95;89.59
57412;BME280;43247;52.828;-8.980;2023-07-28T00:06:31;100314.40;;;16.94;89.60
57412;BME280;43247;52.828;-8.980;2023-07-28T00:07:31;100317.17;;;16.94;89.73
57412;BME280;43247;52.828;-8.980;2023-07-28T00:08:32;100317.63;;;16.93;89.69
57412;BME280;43247;52.828;-8.980;2023-07-28T00:09:32;100309.45;;;16.93;89.70
57412;BME280;43247;52.828;-8.980;2023-07-28T00:10:32;100299.40;;;16.92;89.75
57412;BME280;43247;52.828;-8.980;2023-07-28T00:11:32;100295.91;;;16.92;89.75
57412;BME280;43247;52.828;-8.980;2023-07-28T00:12:33;100298.12;;;16.92;89.79
57412;BME280;43247;52.828;-8.980;2023-07-28T00:13:33;100300.35;;;16.91;89.84
57412;BME280;43247;52.828;-8.980;2023-07-28T00:14:33;100299.77;;;16.91;89.74
57412;BME280;43247;52.828;-8.980;2023-07-28T00:15:33;100299.96;;;16.90;89.81
57412;BME280;43247;52.828;-8.980;2023-07-28T00:16:34;100297.88;;;16.90;89.77
57412;BME280;43247;52.828;-8.980;2023-07-28T00:17:34;100299.74;;;16.90;89.88
57412;BME280;43247;52.828;-8.980;2023-07-28T00:18:34;100301.00;;;16.90;89.78
57412;BME280;43247;52.828;-8.980;2023-07-28T00:19:34;100299.07;;;16.90;89.78
57412;BME280;43247;52.828;-8.980;2023-07-28T00:20:34;100297.60;;;16.89;89.78
57412;BME280;43247;52.828;-8.980;2023-07-28T00:21:34;100296.24;;;16.89;89.82
57412;BME280;43247;52.828;-8.980;2023-07-28T00:22:35;100295.73;;;16.89;89.87
57412;BME280;43247;52.828;-8.980;2023-07-28T00:23:35;100292.29;;;16.88;89.86
57412;BME280;43247;52.828;-8.980;2023-07-28T00:24:35;100291.81;;;16.88;89.88
57412;BME280;43247;52.828;-8.980;2023-07-28T00:25:35;100290.37;;;16.88;89.78
57412;BME280;43247;52.828;-8.980;2023-07-28T00:26:35;100289.77;;;16.87;89.86
57412;BME280;43247;52.828;-8.980;2023-07-28T00:27:35;100287.09;;;16.87;89.91
57412;BME280;43247;52.828;-8.980;2023-07-28T00:28:35;100283.91;;;16.87;89.82
57412;BME280;43247;52.828;-8.980;2023-07-28T00:29:36;100283.87;;;16.86;89.94
57412;BME280;43247;52.828;-8.980;2023-07-28T00:30:36;100288.31;;;16.86;89.95
57412;BME280;43247;52.828;-8.980;2023-07-28T00:31:37;100287.06;;;16.86;89.85
57412;BME280;43247;52.828;-8.980;2023-07-28T00:32:37;100286.22;;;16.86;89.90
57412;BME280;43247;52.828;-8.980;2023-07-28T00:33:37;100285.11;;;16.85;89.90
57412;BME280;43247;52.828;-8.980;2023-07-28T00:34:37;100282.89;;;16.85;89.84
57412;BME280;43247;52.828;-8.980;2023-07-28T00:35:37;100280.05;;;16.85;89.92
57412;BME280;43247;52.828;-8.980;2023-07-28T00:36:37;100281.14;;;16.84;89.85
57412;BME280;43247;52.828;-8.980;2023-07-28T00:37:38;100279.23;;;16.84;89.97
57412;BME280;43247;52.828;-8.980;2023-07-28T00:38:38;100281.91;;;16.84;89.93
57412;BME280;43247;52.828;-8.980;2023-07-28T00:39:38;100280.97;;;16.84;89.94
57412;BME280;43247;52.828;-8.980;2023-07-28T00:40:38;100279.21;;;16.83;89.93
57412;BME280;43247;52.828;-8.980;2023-07-28T00:41:38;100277.92;;;16.83;89.92
57412;BME280;43247;52.828;-8.980;2023-07-28T00:42:38;100282.33;;;16.83;89.91
57412;BME280;43247;52.828;-8.980;2023-07-28T00:43:38;100281.54;;;16.83;89.98
57412;BME280;43247;52.828;-8.980;2023-07-28T00:44:39;100282.57;;;16.83;90.03
57412;BME280;43247;52.828;-8.980;2023-07-28T00:45:39;100279.65;;;16.82;90.03
57412;BME280;43247;52.828;-8.980;2023-07-28T00:46:39;100279.45;;;16.82;90.03
57412;BME280;43247;52.828;-8.980;2023-07-28T00:47:39;100278.25;;;16.82;90.03
57412;BME280;43247;52.828;-8.980;2023-07-28T00:48:40;100278.96;;;16.82;89.93
57412;BME280;43247;52.828;-8.980;2023-07-28T00:49:40;100281.80;;;16.82;89.94
57412;BME280;43247;52.828;-8.980;2023-07-28T00:50:41;100279.44;;;16.81;89.88
57412;BME280;43247;52.828;-8.980;2023-07-28T00:51:41;100275.32;;;16.81;89.96
57412;BME280;43247;52.828;-8.980;2023-07-28T00:52:42;100275.16;;;16.81;89.95
57412;BME280;43247;52.828;-8.980;2023-07-28T00:53:41;100271.63;;;16.81;90.02
57412;BME280;43247;52.828;-8.980;2023-07-28T00:54:41;100270.39;;;16.81;90.07
57412;BME280;43247;52.828;-8.980;2023-07-28T00:55:42;100267.97;;;16.81;90.09
57412;BME280;43247;52.828;-8.980;2023-07-28T00:56:42;100275.79;;;16.81;90.18
57412;BME280;43247;52.828;-8.980;2023-07-28T00:57:42;100280.12;;;16.80;90.17
57412;BME280;43247;52.828;-8.980;2023-07-28T00:58:42;100277.56;;;16.80;90.20
57412;BME280;43247;52.828;-8.980;2023-07-28T00:59:43;100274.54;;;16.80;90.25
57412;BME280;43247;52.828;-8.980;2023-07-28T01:00:43;100279.97;;;16.80;90.23
57412;BME280;43247;52.828;-8.980;2023-07-28T01:01:43;100280.48;;;16.80;90.27
57412;BME280;43247;52.828;-8.980;2023-07-28T01:02:43;100274.32;;;16.79;90.32
57412;BME280;43247;52.828;-8.980;2023-07-28T01:03:43;100269.56;;;16.78;90.23
57412;BME280;43247;52.828;-8.980;2023-07-28T01:04:43;100270.57;;;16.77;90.40
57412;BME280;43247;52.828;-8.980;2023-07-28T01:05:49;100268.37;;;16.78;90.37
57412;BME280;43247;52.828;-8.980;2023-07-28T01:06:50;100266.40;;;16.78;90.15
57412;BME280;43247;52.828;-8.980;2023-07-28T01:07:47;100266.62;;;16.78;90.03
57412;BME280;43247;52.828;-8.980;2023-07-28T01:08:49;100265.49;;;16.78;89.85
57412;BME280;43247;52.828;-8.980;2023-07-28T01:09:49;100267.04;;;16.79;89.76
57412;BME280;43247;52.828;-8.980;2023-07-28T01:10:45;100265.60;;;16.79;89.73
57412;BME280;43247;52.828;-8.980;2023-07-28T01:11:54;100267.45;;;16.80;89.68
57412;BME280;43247;52.828;-8.980;2023-07-28T01:12:44;100267.99;;;16.80;89.53
57412;BME280;43247;52.828;-8.980;2023-07-28T01:13:45;100267.60;;;16.81;89.53
57412;BME280;43247;52.828;-8.980;2023-07-28T01:14:45;100266.20;;;16.81;89.52
57412;BME280;43247;52.828;-8.980;2023-07-28T01:15:45;100264.73;;;16.81;89.46
57412;BME280;43247;52.828;-8.980;2023-07-28T01:16:45;100264.40;;;16.81;89.47
57412;BME280;43247;52.828;-8.980;2023-07-28T01:17:46;100263.41;;;16.81;89.44
57412;BME280;43247;52.828;-8.980;2023-07-28T01:18:46;100260.58;;;16.82;89.48
57412;BME280;43247;52.828;-8.980;2023-07-28T01:19:46;100262.41;;;16.82;89.41
57412;BME280;43247;52.828;-8.980;2023-07-28T01:20:46;100262.04;;;16.82;89.47
57412;BME280;43247;52.828;-8.980;2023-07-28T01:21:53;100261.16;;;16.82;89.42
57412;BME280;43247;52.828;-8.980;2023-07-28T01:22:52;100260.25;;;16.82;89.41
57412;BME280;43247;52.828;-8.980;2023-07-28T01:23:55;100261.97;;;16.82;89.44
57412;BME280;43247;52.828;-8.980;2023-07-28T01:24:54;100262.32;;;16.82;89.37
57412;BME280;43247;52.828;-8.980;2023-07-28T01:25:56;100262.09;;;16.82;89.41
57412;BME280;43247;52.828;-8.980;2023-07-28T01:26:48;100263.78;;;16.81;89.46
57412;BME280;43247;52.828;-8.980;2023-07-28T01:27:48;100264.10;;;16.81;89.48
57412;BME280;43247;52.828;-8.980;2023-07-28T01:28:48;100263.20;;;16.82;89.53
57412;BME280;43247;52.828;-8.980;2023-07-28T01:29:48;100261.32;;;16.81;89.49
57412;BME280;43247;52.828;-8.980;2023-07-28T01:30:48;100260.20;;;16.81;89.57
57412;BME280;43247;52.828;-8.980;2023-07-28T01:31:48;100260.21;;;16.81;89.60
57412;BME280;43247;52.828;-8.980;2023-07-28T01:32:48;100260.66;;;16.79;89.58
57412;BME280;43247;52.828;-8.980;2023-07-28T01:33:48;100257.81;;;16.78;89.67
57412;BME280;43247;52.828;-8.980;2023-07-28T01:34:48;100256.92;;;16.77;89.70
57412;BME280;43247;52.828;-8.980;2023-07-28T01:35:48;100255.12;;;16.77;89.69
57412;BME280;43247;52.828;-8.980;2023-07-28T01:36:49;100250.24;;;16.76;89.68
57412;BME280;43247;52.828;-8.980;2023-07-28T01:37:49;100249.89;;;16.76;89.72
57412;BME280;43247;52.828;-8.980;2023-07-28T01:38:49;100247.92;;;16.75;89.75
57412;BME280;43247;52.828;-8.980;2023-07-28T01:39:49;100247.03;;;16.75;89.75
57412;BME280;43247;52.828;-8.980;2023-07-28T01:40:49;100246.67;;;16.75;89.80
57412;BME280;43247;52.828;-8.980;2023-07-28T01:41:49;100241.73;;;16.75;89.80
57412;BME280;43247;52.828;-8.980;2023-07-28T01:42:50;100241.31;;;16.75;89.82
57412;BME280;43247;52.828;-8.980;2023-07-28T01:43:50;100241.86;;;16.74;89.91
57412;BME280;43247;52.828;-8.980;2023-07-28T01:44:50;100242.67;;;16.74;89.88
57412;BME280;43247;52.828;-8.980;2023-07-28T01:45:50;100242.67;;;16.74;89.85
57412;BME280;43247;52.828;-8.980;2023-07-28T01:46:50;100243.48;;;16.74;89.91
57412;BME280;43247;52.828;-8.980;2023-07-28T01:47:50;100239.94;;;16.74;89.90
57412;BME280;43247;52.828;-8.980;2023-07-28T01:48:50;100240.58;;;16.74;89.89
57412;BME280;43247;52.828;-8.980;2023-07-28T01:49:51;100239.52;;;16.74;89.79
57412;BME280;43247;52.828;-8.980;2023-07-28T01:50:51;100237.99;;;16.74;89.92
57412;BME280;43247;52.828;-8.980;2023-07-28T01:51:51;100237.40;;;16.74;89.85
57412;BME280;43247;52.828;-8.980;2023-07-28T01:52:51;100238.04;;;16.74;89.88
57412;BME280;43247;52.828;-8.980;2023-07-28T01:53:51;100237.22;;;16.73;89.89
57412;BME280;43247;52.828;-8.980;2023-07-28T01:54:51;100236.13;;;16.73;89.85
57412;BME280;43247;52.828;-8.980;2023-07-28T01:55:52;100238.53;;;16.73;89.86
57412;BME280;43247;52.828;-8.980;2023-07-28T01:56:52;100238.42;;;16.73;89.89
57412;BME280;43247;52.828;-8.980;2023-07-28T01:57:56;100235.76;;;16.72;89.86
57412;BME280;43247;52.828;-8.980;2023-07-28T01:58:53;100235.44;;;16.73;89.87
57412;BME280;43247;52.828;-8.980;2023-07-28T01:59:53;100237.33;;;16.72;89.88
57412;BME280;43247;52.828;-8.980;2023-07-28T02:00:53;100238.00;;;16.72;89.91
57412;BME280;43247;52.828;-8.980;2023-07-28T02:01:53;100239.80;;;16.72;89.89
57412;BME280;43247;52.828;-8.980;2023-07-28T02:02:53;100241.65;;;16.72;89.89
57412;BME280;43247;52.828;-8.980;2023-07-28T02:03:54;100240.45;;;16.72;89.88
57412;BME280;43247;52.828;-8.980;2023-07-28T02:04:54;100240.14;;;16.72;89.84
57412;BME280;43247;52.828;-8.980;2023-07-28T02:05:54;100238.02;;;16.72;89.83
57412;BME280;43247;52.828;-8.980;2023-07-28T02:06:54;100236.93;;;16.72;89.85
57412;BME280;43247;52.828;-8.980;2023-07-28T02:07:55;100239.22;;;16.71;89.86
57412;BME280;43247;52.828;-8.980;2023-07-28T02:08:55;100241.27;;;16.71;89.87
57412;BME280;43247;52.828;-8.980;2023-07-28T02:09:55;100238.23;;;16.71;89.84
57412;BME280;43247;52.828;-8.980;2023-07-28T02:10:56;100235.88;;;16.71;89.83
57412;BME280;43247;52.828;-8.980;2023-07-28T02:11:56;100231.68;;;16.71;89.86
57412;BME280;43247;52.828;-8.980;2023-07-28T02:12:56;100230.93;;;16.70;89.84
57412;BME280;43247;52.828;-8.980;2023-07-28T02:13:56;100230.68;;;16.70;89.82
57412;BME280;43247;52.828;-8.980;2023-07-28T02:14:56;100229.46;;;16.70;89.84
57412;BME280;43247;52.828;-8.980;2023-07-28T02:15:56;100228.56;;;16.69;89.80
57412;BME280;43247;52.828;-8.980;2023-07-28T02:16:56;100229.89;;;16.69;89.83
57412;BME280;43247;52.828;-8.980;2023-07-28T02:17:56;100226.39;;;16.69;89.82
57412;BME280;43247;52.828;-8.980;2023-07-28T02:18:57;100227.12;;;16.69;89.85
57412;BME280;43247;52.828;-8.980;2023-07-28T02:19:57;100223.28;;;16.69;89.80
57412;BME280;43247;52.828;-8.980;2023-07-28T02:20:57;100221.08;;;16.68;89.83
57412;BME280;43247;52.828;-8.980;2023-07-28T02:21:57;100220.44;;;16.68;89.84
57412;BME280;43247;52.828;-8.980;2023-07-28T02:22:57;100218.77;;;16.69;89.78
57412;BME280;43247;52.828;-8.980;2023-07-28T02:23:57;100216.45;;;16.68;89.83
57412;BME280;43247;52.828;-8.980;2023-07-28T02:24:58;100219.18;;;16.68;89.79
57412;BME280;43247;52.828;-8.980;2023-07-28T02:25:58;100218.12;;;16.68;89.78
57412;BME280;43247;52.828;-8.980;2023-07-28T02:26:58;100217.84;;;16.67;89.84
57412;BME280;43247;52.828;-8.980;2023-07-28T02:27:58;100215.04;;;16.67;89.89
57412;BME280;43247;52.828;-8.980;2023-07-28T02:28:58;100214.37;;;16.67;89.81
57412;BME280;43247;52.828;-8.980;2023-07-28T02:29:58;100214.31;;;16.66;89.85
57412;BME280;43247;52.828;-8.980;2023-07-28T02:30:58;100211.68;;;16.66;89.88
57412;BME280;43247;52.828;-8.980;2023-07-28T02:31:59;100211.53;;;16.66;89.83
57412;BME280;43247;52.828;-8.980;2023-07-28T02:32:59;100212.27;;;16.66;89.86
57412;BME280;43247;52.828;-8.980;2023-07-28T02:33:59;100207.72;;;16.66;89.82
57412;BME280;43247;52.828;-8.980;2023-07-28T02:35:00;100208.77;;;16.66;89.83
57412;BME280;43247;52.828;-8.980;2023-07-28T02:36:00;100206.97;;;16.65;89.79
57412;BME280;43247;52.828;-8.980;2023-07-28T02:37:00;100207.98;;;16.65;89.83
57412;BME280;43247;52.828;-8.980;2023-07-28T02:38:00;100203.99;;;16.65;89.76
57412;BME280;43247;52.828;-8.980;2023-07-28T02:39:00;100200.85;;;16.65;89.87
57412;BME280;43247;52.828;-8.980;2023-07-28T02:40:00;100197.96;;;16.65;89.82
57412;BME280;43247;52.828;-8.980;2023-07-28T02:41:01;100195.02;;;16.65;89.87
57412;BME280;43247;52.828;-8.980;2023-07-28T02:42:01;100191.43;;;16.64;89.87
57412;BME280;43247;52.828;-8.980;2023-07-28T02:43:01;100188.77;;;16.64;89.86
57412;BME280;43247;52.828;-8.980;2023-07-28T02:44:01;100186.95;;;16.64;89.89
57412;BME280;43247;52.828;-8.980;2023-07-28T02:45:01;100183.22;;;16.64;89.86
57412;BME280;43247;52.828;-8.980;2023-07-28T02:46:01;100184.91;;;16.64;89.82
57412;BME280;43247;52.828;-8.980;2023-07-28T02:47:01;100183.74;;;16.63;89.84
57412;BME280;43247;52.828;-8.980;2023-07-28T02:48:02;100183.51;;;16.63;89.94
57412;BME280;43247;52.828;-8.980;2023-07-28T02:49:02;100183.76;;;16.63;89.91
57412;BME280;43247;52.828;-8.980;2023-07-28T02:50:04;100180.05;;;16.63;89.92
57412;BME280;43247;52.828;-8.980;2023-07-28T02:51:04;100179.99;;;16.62;89.97
57412;BME280;43247;52.828;-8.980;2023-07-28T02:52:05;100176.67;;;16.62;89.95
57412;BME280;43247;52.828;-8.980;2023-07-28T02:53:04;100177.29;;;16.62;89.93
57412;BME280;43247;52.828;-8.980;2023-07-28T02:54:04;100178.00;;;16.62;89.92
57412;BME280;43247;52.828;-8.980;2023-07-28T02:55:05;100177.11;;;16.61;89.97
57412;BME280;43247;52.828;-8.980;2023-07-28T02:56:05;100174.69;;;16.60;89.80
57412;BME280;43247;52.828;-8.980;2023-07-28T02:57:06;100175.37;;;16.60;89.55
57412;BME280;43247;52.828;-8.980;2023-07-28T02:58:05;100174.32;;;16.59;89.09
57412;BME280;43247;52.828;-8.980;2023-07-28T02:59:06;100171.96;;;16.60;88.63
57412;BME280;43247;52.828;-8.980;2023-07-28T03:00:07;100175.85;;;16.61;87.91
57412;BME280;43247;52.828;-8.980;2023-07-28T03:01:06;100174.44;;;16.62;87.10
57412;BME280;43247;52.828;-8.980;2023-07-28T03:02:06;100172.78;;;16.63;86.30
57412;BME280;43247;52.828;-8.980;2023-07-28T03:03:08;100171.85;;;16.64;85.83
57412;BME280;43247;52.828;-8.980;2023-07-28T03:04:07;100173.02;;;16.67;85.53
57412;BME280;43247;52.828;-8.980;2023-07-28T03:05:08;100172.97;;;16.69;85.39
57412;BME280;43247;52.828;-8.980;2023-07-28T03:06:08;100175.78;;;16.70;85.54
57412;BME280;43247;52.828;-8.980;2023-07-28T03:07:08;100175.04;;;16.72;85.53
57412;BME280;43247;52.828;-8.980;2023-07-28T03:08:08;100172.61;;;16.73;85.51
57412;BME280;43247;52.828;-8.980;2023-07-28T03:09:08;100174.44;;;16.74;85.58
57412;BME280;43247;52.828;-8.980;2023-07-28T03:10:09;100172.15;;;16.75;85.71
57412;BME280;43247;52.828;-8.980;2023-07-28T03:11:08;100171.27;;;16.75;85.68
57412;BME280;43247;52.828;-8.980;2023-07-28T03:12:09;100171.85;;;16.75;85.41
57412;BME280;43247;52.828;-8.980;2023-07-28T03:13:09;100172.31;;;16.75;85.47
57412;BME280;43247;52.828;-8.980;2023-07-28T03:14:09;100171.81;;;16.75;85.71
57412;BME280;43247;52.828;-8.980;2023-07-28T03:15:09;100171.15;;;16.76;85.96
57412;BME280;43247;52.828;-8.980;2023-07-28T03:16:09;100169.64;;;16.76;86.23
57412;BME280;43247;52.828;-8.980;2023-07-28T03:17:09;100171.47;;;16.76;86.27
57412;BME280;43247;52.828;-8.980;2023-07-28T03:18:10;100171.38;;;16.77;86.04
57412;BME280;43247;52.828;-8.980;2023-07-28T03:19:10;100169.58;;;16.77;86.07
57412;BME280;43247;52.828;-8.980;2023-07-28T03:20:11;100171.51;;;16.77;86.12
57412;BME280;43247;52.828;-8.980;2023-07-28T03:21:10;100169.11;;;16.77;86.21
57412;BME280;43247;52.828;-8.980;2023-07-28T03:22:10;100167.73;;;16.77;86.28
57412;BME280;43247;52.828;-8.980;2023-07-28T03:23:11;100168.96;;;16.77;86.43
57412;BME280;43247;52.828;-8.980;2023-07-28T03:24:11;100168.24;;;16.76;86.44
57412;BME280;43247;52.828;-8.980;2023-07-28T03:25:13;100165.64;;;16.76;86.54
57412;BME280;43247;52.828;-8.980;2023-07-28T03:26:11;100164.99;;;16.76;86.57
57412;BME280;43247;52.828;-8.980;2023-07-28T03:27:11;100164.56;;;16.75;86.55
57412;BME280;43247;52.828;-8.980;2023-07-28T03:28:11;100161.32;;;16.75;86.79
57412;BME280;43247;52.828;-8.980;2023-07-28T03:29:12;100163.60;;;16.75;86.78
57412;BME280;43247;52.828;-8.980;2023-07-28T03:30:12;100162.17;;;16.75;86.93
57412;BME280;43247;52.828;-8.980;2023-07-28T03:31:12;100161.63;;;16.74;86.95
57412;BME280;43247;52.828;-8.980;2023-07-28T03:32:12;100163.73;;;16.74;87.05
57412;BME280;43247;52.828;-8.980;2023-07-28T03:33:12;100161.65;;;16.74;87.33
57412;BME280;43247;52.828;-8.980;2023-07-28T03:34:12;100161.02;;;16.73;87.36
57412;BME280;43247;52.828;-8.980;2023-07-28T03:35:13;100159.99;;;16.72;87.34
57412;BME280;43247;52.828;-8.980;2023-07-28T03:36:13;100160.68;;;16.70;87.39
57412;BME280;43247;52.828;-8.980;2023-07-28T03:37:13;100158.73;;;16.69;87.11
57412;BME280;43247;52.828;-8.980;2023-07-28T03:38:13;100158.36;;;16.69;87.20
57412;BME280;43247;52.828;-8.980;2023-07-28T03:39:13;100157.38;;;16.68;87.12
57412;BME280;43247;52.828;-8.980;2023-07-28T03:40:13;100157.17;;;16.67;87.24
57412;BME280;43247;52.828;-8.980;2023-07-28T03:41:13;100155.89;;;16.67;87.36
57412;BME280;43247;52.828;-8.980;2023-07-28T03:42:14;100157.48;;;16.67;87.38
57412;BME280;43247;52.828;-8.980;2023-07-28T03:43:14;100155.59;;;16.66;87.49
57412;BME280;43247;52.828;-8.980;2023-07-28T03:44:14;100157.28;;;16.66;87.65
57412;BME280;43247;52.828;-8.980;2023-07-28T03:45:14;100157.15;;;16.65;87.65
57412;BME280;43247;52.828;-8.980;2023-07-28T03:46:14;100157.65;;;16.65;87.85
57412;BME280;43247;52.828;-8.980;2023-07-28T03:47:14;100153.96;;;16.64;87.98
57412;BME280;43247;52.828;-8.980;2023-07-28T03:48:14;100154.01;;;16.64;87.86
57412;BME280;43247;52.828;-8.980;2023-07-28T03:49:15;100156.22;;;16.64;88.12
57412;BME280;43247;52.828;-8.980;2023-07-28T03:50:15;100158.46;;;16.64;88.20
57412;BME280;43247;52.828;-8.980;2023-07-28T03:51:15;100157.39;;;16.64;88.26
57412;BME280;43247;52.828;-8.980;2023-07-28T03:52:16;100159.28;;;16.63;88.43
57412;BME280;43247;52.828;-8.980;2023-07-28T03:53:16;100159.70;;;16.63;88.44
57412;BME280;43247;52.828;-8.980;2023-07-28T03:54:16;100162.15;;;16.63;88.54
57412;BME280;43247;52.828;-8.980;2023-07-28T03:55:16;100165.15;;;16.62;88.62
57412;BME280;43247;52.828;-8.980;2023-07-28T03:56:16;100162.36;;;16.62;88.59
57412;BME280;43247;52.828;-8.980;2023-07-28T03:57:16;100165.12;;;16.62;88.63
57412;BME280;43247;52.828;-8.980;2023-07-28T03:58:17;100164.21;;;16.62;88.65
57412;BME280;43247;52.828;-8.980;2023-07-28T03:59:17;100165.46;;;16.61;88.67
57412;BME280;43247;52.828;-8.980;2023-07-28T04:00:17;100162.00;;;16.60;88.73
57412;BME280;43247;52.828;-8.980;2023-07-28T04:01:18;100163.03;;;16.60;88.77
57412;BME280;43247;52.828;-8.980;2023-07-28T04:02:18;100159.02;;;16.60;88.80
57412;BME280;43247;52.828;-8.980;2023-07-28T04:03:19;100160.47;;;16.60;88.86
57412;BME280;43247;52.828;-8.980;2023-07-28T04:04:19;100160.90;;;16.60;88.93
57412;BME280;43247;52.828;-8.980;2023-07-28T04:05:19;100161.03;;;16.59;88.88
57412;BME280;43247;52.828;-8.980;2023-07-28T04:07:20;100158.47;;;16.58;88.98
57412;BME280;43247;52.828;-8.980;2023-07-28T04:08:20;100157.35;;;16.58;88.92
57412;BME280;43247;52.828;-8.980;2023-07-28T04:09:20;100156.39;;;16.58;88.95
57412;BME280;43247;52.828;-8.980;2023-07-28T04:10:20;100154.11;;;16.58;88.99
57412;BME280;43247;52.828;-8.980;2023-07-28T04:11:20;100155.10;;;16.58;89.11
57412;BME280;43247;52.828;-8.980;2023-07-28T04:12:21;100155.26;;;16.58;89.11
57412;BME280;43247;52.828;-8.980;2023-07-28T04:13:20;100154.44;;;16.57;89.19
57412;BME280;43247;52.828;-8.980;2023-07-28T04:14:21;100153.28;;;16.57;89.23
57412;BME280;43247;52.828;-8.980;2023-07-28T04:15:21;100152.42;;;16.57;89.33
57412;BME280;43247;52.828;-8.980;2023-07-28T04:16:21;100154.00;;;16.57;89.34
57412;BME280;43247;52.828;-8.980;2023-07-28T04:17:21;100149.30;;;16.56;89.36
57412;BME280;43247;52.828;-8.980;2023-07-28T04:18:21;100146.41;;;16.56;89.35
57412;BME280;43247;52.828;-8.980;2023-07-28T04:19:21;100146.56;;;16.56;89.39
57412;BME280;43247;52.828;-8.980;2023-07-28T04:20:22;100148.37;;;16.56;89.41
57412;BME280;43247;52.828;-8.980;2023-07-28T04:21:22;100148.07;;;16.56;89.36
57412;BME280;43247;52.828;-8.980;2023-07-28T04:22:22;100146.86;;;16.55;89.42
57412;BME280;43247;52.828;-8.980;2023-07-28T04:23:22;100145.35;;;16.55;89.50
57412;BME280;43247;52.828;-8.980;2023-07-28T04:24:22;100143.04;;;16.55;89.47
57412;BME280;43247;52.828;-8.980;2023-07-28T04:25:23;100144.41;;;16.55;89.54
57412;BME280;43247;52.828;-8.980;2023-07-28T04:26:24;100142.27;;;16.54;89.51
57412;BME280;43247;52.828;-8.980;2023-07-28T04:27:23;100140.06;;;16.54;89.49
57412;BME280;43247;52.828;-8.980;2023-07-28T04:28:23;100139.71;;;16.54;89.50
57412;BME280;43247;52.828;-8.980;2023-07-28T04:29:24;100137.76;;;16.54;89.52
57412;BME280;43247;52.828;-8.980;2023-07-28T04:30:24;100135.11;;;16.53;89.56
57412;BME280;43247;52.828;-8.980;2023-07-28T04:31:24;100133.90;;;16.53;89.60
57412;BME280;43247;52.828;-8.980;2023-07-28T04:32:24;100132.44;;;16.53;89.67
57412;BME280;43247;52.828;-8.980;2023-07-28T04:33:24;100134.01;;;16.53;89.65
57412;BME280;43247;52.828;-8.980;2023-07-28T04:34:24;100133.83;;;16.53;89.64
57412;BME280;43247;52.828;-8.980;2023-07-28T04:35:24;100130.53;;;16.52;89.67
57412;BME280;43247;52.828;-8.980;2023-07-28T04:36:25;100128.98;;;16.52;89.72
57412;BME280;43247;52.828;-8.980;2023-07-28T04:37:25;100127.30;;;16.52;89.69
57412;BME280;43247;52.828;-8.980;2023-07-28T04:38:25;100126.26;;;16.51;89.73
57412;BME280;43247;52.828;-8.980;2023-07-28T04:39:26;100124.31;;;16.52;89.80
57412;BME280;43247;52.828;-8.980;2023-07-28T04:40:26;100127.29;;;16.51;89.82
57412;BME280;43247;52.828;-8.980;2023-07-28T04:41:26;100127.84;;;16.52;89.78
57412;BME280;43247;52.828;-8.980;2023-07-28T04:42:26;100125.98;;;16.51;89.74
57412;BME280;43247;52.828;-8.980;2023-07-28T04:43:28;100123.14;;;16.51;89.79
57412;BME280;43247;52.828;-8.980;2023-07-28T04:44:26;100125.64;;;16.51;89.78
57412;BME280;43247;52.828;-8.980;2023-07-28T04:45:26;100126.11;;;16.51;89.77
57412;BME280;43247;52.828;-8.980;2023-07-28T04:46:27;100125.19;;;16.50;89.78
57412;BME280;43247;52.828;-8.980;2023-07-28T04:47:27;100123.53;;;16.50;89.74
57412;BME280;43247;52.828;-8.980;2023-07-28T04:48:27;100125.11;;;16.50;89.74
57412;BME280;43247;52.828;-8.980;2023-07-28T04:49:27;100125.72;;;16.50;89.74
57412;BME280;43247;52.828;-8.980;2023-07-28T04:50:28;100127.56;;;16.50;89.80
57412;BME280;43247;52.828;-8.980;2023-07-28T04:51:27;100122.56;;;16.49;89.77
57412;BME280;43247;52.828;-8.980;2023-07-28T04:52:28;100122.49;;;16.49;89.82
57412;BME280;43247;52.828;-8.980;2023-07-28T04:53:28;100123.17;;;16.49;89.85
57412;BME280;43247;52.828;-8.980;2023-07-28T04:54:28;100122.35;;;16.49;89.89
57412;BME280;43247;52.828;-8.980;2023-07-28T04:55:28;100124.62;;;16.49;89.85
57412;BME280;43247;52.828;-8.980;2023-07-28T04:56:28;100123.58;;;16.49;89.86
57412;BME280;43247;52.828;-8.980;2023-07-28T04:57:28;100120.90;;;16.48;89.88
57412;BME280;43247;52.828;-8.980;2023-07-28T04:58:29;100123.84;;;16.48;89.86
57412;BME280;43247;52.828;-8.980;2023-07-28T04:59:29;100122.79;;;16.48;89.85
57412;BME280;43247;52.828;-8.980;2023-07-28T05:00:29;100121.73;;;16.48;89.88
57412;BME280;43247;52.828;-8.980;2023-07-28T05:01:29;100123.15;;;16.47;89.92
57412;BME280;43247;52.828;-8.980;2023-07-28T05:02:29;100121.74;;;16.47;89.94
57412;BME280;43247;52.828;-8.980;2023-07-28T05:03:29;100118.01;;;16.47;89.95
57412;BME280;43247;52.828;-8.980;2023-07-28T05:04:29;100115.04;;;16.47;89.95
57412;BME280;43247;52.828;-8.980;2023-07-28T05:05:30;100116.67;;;16.47;89.98
57412;BME280;43247;52.828;-8.980;2023-07-28T05:06:30;100114.76;;;16.47;89.99
57412;BME280;43247;52.828;-8.980;2023-07-28T05:07:30;100116.63;;;16.46;89.98
57412;BME280;43247;52.828;-8.980;2023-07-28T05:08:30;100117.41;;;16.46;90.02
57412;BME280;43247;52.828;-8.980;2023-07-28T05:09:30;100117.73;;;16.46;89.98
57412;BME280;43247;52.828;-8.980;2023-07-28T05:10:30;100114.53;;;16.45;89.98
57412;BME280;43247;52.828;-8.980;2023-07-28T05:11:30;100114.29;;;16.46;89.98